Time;durP1;ratioP1;P1;durP2;ratioP2;P2;SDS_P1;SDS_P2;PMS_P1;PMS_P2;Temp;Humidity;BMP_temperature;BMP_pressure;BME280_temperature;BME280_humidity;BME280_pressure;Samples;Min_cycle;Max_cycle;Signal;HPM_P1;HPM_P2
2022/03/04 00:01:21;;;;;;;;;;;1.70;99.90;;;;;;5142318;27;19920;-56
2022/03/04 00:03:48;;;;;;;;;;;1.70;99.90;;;;;;5149421;27;19923;-56
2022/03/04 00:06:15;;;;;;;;;;;1.70;99.90;;;;;;5136929;27;19972;-54
2022/03/04 00:08:43;;;;;;;;;;;1.60;99.90;;;;;;5136405;27;20389;-56
2022/03/04 00:11:09;;;;;;;;;;;1.50;99.90;;;;;;5135996;27;19919;-55
2022/03/04 00:13:36;;;;;;;;;;;1.40;99.90;;;;;;5135839;27;19964;-56
2022/03/04 00:16:02;;;;;;;;;;;1.40;99.90;;;;;;5135388;27;19939;-56
2022/03/04 00:18:29;;;;;;;;;;;1.30;99.90;;;;;;5135984;27;19972;-55
2022/03/04 00:20:55;;;;;;;;;;;1.20;99.90;;;;;;5135298;27;20377;-55
2022/03/04 00:23:22;;;;;;;;;;;1.20;99.90;;;;;;5135679;27;19926;-53
2022/03/04 00:25:50;;;;;;;;;;;1.20;99.90;;;;;;5135319;27;19926;-57
2022/03/04 00:28:17;;;;;;;;;;;1.30;99.90;;;;;;5135422;27;19975;-51
2022/03/04 00:30:43;;;;;;;;;;;1.20;99.90;;;;;;5135125;27;20406;-57
2022/03/04 00:33:10;;;;;;;;;;;1.20;99.90;;;;;;5135483;27;19919;-53
2022/03/04 00:35:36;;;;;;;;;;;1.20;99.90;;;;;;5135466;27;19975;-54
2022/03/04 00:38:03;;;;;;;;;;;1.20;99.90;;;;;;5135153;27;20341;-53
2022/03/04 00:40:29;;;;;;;;;;;1.20;99.90;;;;;;5135144;27;20288;-53
2022/03/04 00:42:57;;;;;;;;;;;1.10;99.90;;;;;;5134489;27;19919;-54
2022/03/04 00:45:24;;;;;;;;;;;1.20;99.90;;;;;;5134675;27;19964;-55
2022/03/04 00:47:50;;;;;;;;;;;1.20;99.90;;;;;;5135051;27;19923;-53
2022/03/04 00:50:17;;;;;;;;;;;1.20;99.90;;;;;;5135324;27;19924;-55
2022/03/04 00:52:43;;;;;;;;;;;1.10;99.90;;;;;;5135376;27;20304;-55
2022/03/04 00:55:10;;;;;;;;;;;1.10;99.90;;;;;;5135162;27;19964;-54
2022/03/04 00:57:37;;;;;;;;;;;1.10;99.90;;;;;;5134687;27;19930;-54
2022/03/04 01:00:06;;;;;;;;;;;1.00;99.90;;;;;;5134838;27;19923;-54
2022/03/04 01:02:33;;;;;;;;;;;1.00;99.90;;;;;;5134885;27;20349;-55
2022/03/04 01:05:00;;;;;;;;;;;1.00;99.90;;;;;;5134670;27;20320;-53
2022/03/04 01:07:26;;;;;;;;;;;1.00;99.90;;;;;;5134472;27;19923;-53
2022/03/04 01:09:52;;;;;;;;;;;1.00;99.90;;;;;;5134526;27;19920;-52
2022/03/04 01:12:19;;;;;;;;;;;1.00;99.90;;;;;;5134180;27;19945;-54
2022/03/04 01:14:47;;;;;;;;;;;0.90;99.90;;;;;;5134542;27;19964;-55
2022/03/04 01:17:15;;;;;;;;;;;0.90;99.90;;;;;;5134433;27;19972;-54
2022/03/04 01:19:41;;;;;;;;;;;1.00;99.90;;;;;;5134677;27;19919;-54
2022/03/04 01:22:08;;;;;;;;;;;1.00;99.90;;;;;;5134197;27;19964;-56
2022/03/04 01:24:34;;;;;;;;;;;0.90;99.90;;;;;;5134305;27;19919;-56
2022/03/04 01:27:01;;;;;;;;;;;0.90;99.90;;;;;;5133502;27;19949;-56
2022/03/04 01:29:27;;;;;;;;;;;0.90;99.90;;;;;;5134549;27;19920;-56
2022/03/04 01:31:54;;;;;;;;;;;0.90;99.90;;;;;;5134559;27;19965;-55
2022/03/04 01:34:22;;;;;;;;;;;0.90;99.90;;;;;;5134019;27;19923;-55
2022/03/04 01:36:48;;;;;;;;;;;0.80;99.90;;;;;;5134420;27;19923;-56
2022/03/04 01:39:15;;;;;;;;;;;0.80;99.90;;;;;;5133840;27;20334;-54
2022/03/04 01:41:41;;;;;;;;;;;0.70;99.90;;;;;;5134347;27;19968;-55
2022/03/04 01:44:08;;;;;;;;;;;0.70;99.90;;;;;;5134268;27;19972;-57
2022/03/04 01:46:34;;;;;;;;;;;0.70;99.90;;;;;;5134409;27;19919;-54
2022/03/04 01:49:01;;;;;;;;;;;0.60;99.90;;;;;;5134102;27;20376;-53
2022/03/04 01:51:29;;;;;;;;;;;0.60;99.90;;;;;;5133904;27;19923;-55
2022/03/04 01:53:55;;;;;;;;;;;0.60;99.90;;;;;;5134042;27;19919;-55
2022/03/04 01:56:24;;;;;;;;;;;0.60;99.90;;;;;;5133698;27;19923;-52
2022/03/04 01:58:51;;;;;;;;;;;0.60;99.90;;;;;;5134195;27;19919;-56
2022/03/04 02:01:18;;;;;;;;;;;0.50;99.90;;;;;;5133781;27;19919;-56
2022/03/04 02:03:45;;;;;;;;;;;0.50;99.90;;;;;;5133816;27;19919;-54
2022/03/04 02:06:11;;;;;;;;;;;0.50;99.90;;;;;;5133499;27;19964;-57
2022/03/04 02:08:39;;;;;;;;;;;0.50;99.90;;;;;;5133594;27;19923;-56
2022/03/04 02:11:06;;;;;;;;;;;0.40;99.90;;;;;;5134038;27;19964;-55
2022/03/04 02:13:33;;;;;;;;;;;0.30;99.90;;;;;;5133320;27;19980;-54
2022/03/04 02:15:59;;;;;;;;;;;0.20;99.90;;;;;;5133482;27;19927;-53
2022/03/04 02:18:26;;;;;;;;;;;0.10;99.90;;;;;;5133402;27;19927;-56
2022/03/04 02:20:53;;;;;;;;;;;0.10;99.90;;;;;;5133502;27;19920;-52
2022/03/04 02:23:21;;;;;;;;;;;0.00;99.90;;;;;;5133207;27;19925;-53
2022/03/04 02:25:48;;;;;;;;;;;-0.10;99.90;;;;;;5133196;27;19995;-56
2022/03/04 02:28:15;;;;;;;;;;;-0.10;99.90;;;;;;5133164;28;19919;-52
2022/03/04 02:30:42;;;;;;;;;;;-0.10;99.90;;;;;;5133242;28;19920;-55
2022/03/04 02:33:09;;;;;;;;;;;-0.20;99.90;;;;;;5133196;28;19965;-53
2022/03/04 02:35:35;;;;;;;;;;;-0.30;99.90;;;;;;5133006;28;19944;-53
2022/03/04 02:38:03;;;;;;;;;;;-0.30;1.00;;;;;;5133400;28;19954;-55
2022/03/04 02:40:30;;;;;;;;;;;-0.40;1.00;;;;;;5133155;28;19972;-55
2022/03/04 02:42:57;;;;;;;;;;;-0.40;1.00;;;;;;5133189;28;19923;-52
2022/03/04 02:45:25;;;;;;;;;;;-0.40;1.00;;;;;;5133148;28;19919;-51
2022/03/04 02:47:52;;;;;;;;;;;-0.40;1.00;;;;;;5132728;28;19972;-50
2022/03/04 02:50:18;;;;;;;;;;;-0.40;1.00;;;;;;5133058;28;19934;-54
2022/03/04 02:52:45;;;;;;;;;;;-0.40;1.00;;;;;;5133195;28;19923;-57
2022/03/04 02:55:12;;;;;;;;;;;-0.50;1.00;;;;;;5133286;28;19964;-55
2022/03/04 02:57:41;;;;;;;;;;;-0.50;1.00;;;;;;5133014;28;19919;-52
2022/03/04 03:00:08;;;;;;;;;;;-0.50;1.00;;;;;;5132832;28;20338;-56
2022/03/04 03:02:35;;;;;;;;;;;-0.60;1.00;;;;;;5132799;28;20426;-53
2022/03/04 03:05:01;;;;;;;;;;;-0.70;1.00;;;;;;5132702;28;19923;-54
2022/03/04 03:07:29;;;;;;;;;;;-0.70;7.70;;;;;;5135035;27;19919;-51
2022/03/04 03:09:55;;;;;;;;;;;-0.70;43.80;;;;;;5136997;27;20338;-51
2022/03/04 03:12:22;;;;;;;;;;;-0.70;55.20;;;;;;5136983;27;19923;-56
2022/03/04 03:14:50;;;;;;;;;;;-0.80;99.90;;;;;;5136980;27;19919;-55
2022/03/04 03:17:16;;;;;;;;;;;-0.90;99.90;;;;;;5113779;27;19964;-56
2022/03/04 03:19:43;;;;;;;;;;;-0.90;99.90;;;;;;5116444;28;19920;-51
2022/03/04 03:22:10;;;;;;;;;;;-1.00;99.90;;;;;;5115920;28;19972;-55
2022/03/04 03:24:36;;;;;;;;;;;-1.00;99.90;;;;;;5116230;28;19924;-55
2022/03/04 03:27:03;;;;;;;;;;;-1.00;99.90;;;;;;5115924;28;19973;-55
2022/03/04 03:29:29;;;;;;;;;;;-1.10;1.00;;;;;;5116205;28;19945;-55
2022/03/04 03:31:57;;;;;;;;;;;-1.10;1.00;;;;;;5115978;28;19965;-55
2022/03/04 03:34:24;;;;;;;;;;;-1.10;1.00;;;;;;5116083;28;19924;-54
2022/03/04 03:36:50;;;;;;;;;;;-1.10;1.00;;;;;;5116072;28;19919;-53
2022/03/04 03:39:16;;;;;;;;;;;-1.20;33.50;;;;;;5115856;28;20369;-51
2022/03/04 03:41:43;;;;;;;;;;;-1.20;99.90;;;;;;5115786;28;19973;-55
2022/03/04 03:44:10;;;;;;;;;;;-1.20;99.90;;;;;;5115504;28;20373;-54
2022/03/04 03:46:37;;;;;;;;;;;-1.20;99.90;;;;;;5115376;28;19928;-53
2022/03/04 03:49:05;;;;;;;;;;;-1.20;99.90;;;;;;5115447;28;20525;-51
2022/03/04 03:51:32;;;;;;;;;;;-1.20;99.90;;;;;;5115741;28;19959;-56
2022/03/04 03:53:59;;;;;;;;;;;-1.20;99.90;;;;;;5115496;28;19964;-53
2022/03/04 03:56:25;;;;;;;;;;;-1.30;99.90;;;;;;5115351;28;19920;-55
2022/03/04 03:58:52;;;;;;;;;;;-1.30;99.90;;;;;;5115553;28;20393;-52
2022/03/04 04:01:19;;;;;;;;;;;-1.30;99.90;;;;;;5115319;28;20007;-55
2022/03/04 04:03:45;;;;;;;;;;;-1.40;99.90;;;;;;5115592;28;19973;-51
2022/03/04 04:06:14;;;;;;;;;;;-1.40;99.90;;;;;;5114920;28;19927;-54
2022/03/04 04:08:41;;;;;;;;;;;-1.40;1.00;;;;;;5115377;28;19923;-53
2022/03/04 04:11:07;;;;;;;;;;;-1.40;1.00;;;;;;5114939;28;20381;-56
2022/03/04 04:13:34;;;;;;;;;;;-1.40;1.00;;;;;;5115034;28;19920;-54
2022/03/04 04:16:00;;;;;;;;;;;-1.40;1.00;;;;;;5115139;28;19972;-53
2022/03/04 04:18:27;;;;;;;;;;;-1.40;1.00;;;;;;5113724;28;19924;-52
2022/03/04 04:20:53;;;;;;;;;;;-1.30;1.00;;;;;;5115104;28;19965;-55
2022/03/04 04:23:22;;;;;;;;;;;-1.30;1.00;;;;;;5114743;28;19965;-55
2022/03/04 04:25:48;;;;;;;;;;;-1.40;1.00;;;;;;5115207;28;19927;-52
2022/03/04 04:28:15;;;;;;;;;;;-1.40;1.00;;;;;;5114477;28;20384;-56
2022/03/04 04:30:41;;;;;;;;;;;-1.40;1.00;;;;;;5115062;28;19945;-54
2022/03/04 04:33:08;;;;;;;;;;;-1.40;1.00;;;;;;5114803;28;20377;-56
2022/03/04 04:35:34;;;;;;;;;;;-1.50;9.40;;;;;;5115343;28;19980;-55
2022/03/04 04:38:01;;;;;;;;;;;-1.40;16.30;;;;;;5115211;28;19920;-56
2022/03/04 04:40:29;;;;;;;;;;;-1.40;13.50;;;;;;5114633;28;20350;-52
2022/03/04 04:42:55;;;;;;;;;;;-1.40;1.00;;;;;;5114507;28;19965;-57
2022/03/04 04:45:22;;;;;;;;;;;-1.40;1.00;;;;;;5114884;28;20343;-57
2022/03/04 04:47:48;;;;;;;;;;;-1.40;1.00;;;;;;5114559;28;19945;-54
2022/03/04 04:50:15;;;;;;;;;;;-1.40;1.00;;;;;;5114308;28;20412;-56
2022/03/04 04:52:42;;;;;;;;;;;-1.50;1.00;;;;;;5114582;28;20010;-53
2022/03/04 04:55:09;;;;;;;;;;;-1.50;1.00;;;;;;5114350;28;19965;-53
2022/03/04 04:57:37;;;;;;;;;;;-1.50;1.00;;;;;;5113957;28;19927;-56
2022/03/04 05:00:04;;;;;;;;;;;-1.50;1.00;;;;;;5114334;28;19924;-53
2022/03/04 05:02:31;;;;;;;;;;;-1.50;1.00;;;;;;5114040;28;20365;-55
2022/03/04 05:04:57;;;;;;;;;;;-1.50;1.00;;;;;;5114627;28;19923;-55
2022/03/04 05:07:24;;;;;;;;;;;-1.50;1.00;;;;;;5114473;28;19945;-52
2022/03/04 05:09:50;;;;;;;;;;;-1.50;1.00;;;;;;5114000;28;19945;-51
2022/03/04 05:12:17;;;;;;;;;;;-1.50;1.00;;;;;;5113993;28;19924;-53
2022/03/04 05:14:44;;;;;;;;;;;-1.50;1.00;;;;;;5114152;28;19980;-52
2022/03/04 05:17:11;;;;;;;;;;;-1.50;1.00;;;;;;5114050;28;19965;-54
2022/03/04 05:19:38;;;;;;;;;;;-1.50;1.00;;;;;;5113574;28;20381;-53
2022/03/04 05:22:04;;;;;;;;;;;-1.50;1.00;;;;;;5113749;28;19964;-54
2022/03/04 05:24:31;;;;;;;;;;;-1.50;1.00;;;;;;5113446;28;19920;-53
2022/03/04 05:26:58;;;;;;;;;;;-1.40;99.90;;;;;;5113754;28;20512;-52
2022/03/04 05:29:24;;;;;;;;;;;-1.40;99.90;;;;;;5113271;28;19920;-54
2022/03/04 05:31:52;;;;;;;;;;;-1.40;99.90;;;;;;5113542;28;19923;-54
2022/03/04 05:34:18;;;;;;;;;;;-1.40;99.90;;;;;;5113490;28;19920;-55
2022/03/04 05:36:45;;;;;;;;;;;-1.40;99.90;;;;;;5113135;28;19927;-54
2022/03/04 05:39:11;;;;;;;;;;;-1.40;99.90;;;;;;5113373;28;19976;-52
2022/03/04 05:41:38;;;;;;;;;;;-1.50;99.90;;;;;;5112461;27;19919;-51
2022/03/04 05:44:05;;;;;;;;;;;-1.50;99.90;;;;;;5121366;27;19964;-52
2022/03/04 05:46:32;;;;;;;;;;;-1.50;99.90;;;;;;5133229;27;19919;-53
2022/03/04 05:49:00;;;;;;;;;;;-1.50;99.90;;;;;;5133399;27;19920;-55
2022/03/04 05:51:26;;;;;;;;;;;-1.50;99.90;;;;;;5133425;27;19972;-57
2022/03/04 05:53:53;;;;;;;;;;;-1.50;99.90;;;;;;5133867;27;20270;-56
2022/03/04 05:56:19;;;;;;;;;;;-1.50;99.90;;;;;;5133682;27;19919;-56
2022/03/04 05:58:46;;;;;;;;;;;-1.50;99.90;;;;;;5133590;27;19941;-58
2022/03/04 06:01:13;;;;;;;;;;;-1.60;99.90;;;;;;5133627;27;19925;-56
2022/03/04 06:03:39;;;;;;;;;;;-1.60;99.90;;;;;;5133349;27;20082;-57
2022/03/04 06:06:10;;;;;;;;;;;-1.50;99.90;;;;;;5133281;27;19958;-56
2022/03/04 06:08:36;;;;;;;;;;;-1.60;99.90;;;;;;5133295;27;19976;-58
2022/03/04 06:11:03;;;;;;;;;;;-1.60;99.90;;;;;;5133295;27;20446;-57
2022/03/04 06:13:29;;;;;;;;;;;-1.70;99.90;;;;;;5133410;27;19969;-57
2022/03/04 06:15:56;;;;;;;;;;;-1.70;99.90;;;;;;5132996;27;19923;-57
2022/03/04 06:18:22;;;;;;;;;;;-1.70;99.90;;;;;;5133593;27;20376;-56
2022/03/04 06:20:49;;;;;;;;;;;-1.70;99.90;;;;;;5133299;27;19927;-56
2022/03/04 06:23:17;;;;;;;;;;;-1.70;99.90;;;;;;5133565;27;20361;-56
2022/03/04 06:25:43;;;;;;;;;;;-1.70;99.90;;;;;;5124127;27;19919;-55
2022/03/04 06:28:10;;;;;;;;;;;-1.70;99.90;;;;;;5132741;27;19920;-58
2022/03/04 06:30:37;;;;;;;;;;;-1.80;99.90;;;;;;5132924;27;19945;-55
2022/03/04 06:35:49;;;;;;;;;;;-1.90;99.90;;;;;;5132900;28;20072;-56
2022/03/04 06:38:17;;;;;;;;;;;-2.00;1.00;;;;;;5133098;28;20334;-56
2022/03/04 06:40:44;;;;;;;;;;;-2.00;96.20;;;;;;5133110;27;19919;-56
2022/03/04 06:43:11;;;;;;;;;;;-1.90;99.90;;;;;;5136284;27;19920;-58
2022/03/04 06:45:37;;;;;;;;;;;-1.90;99.90;;;;;;5136767;27;19992;-56
2022/03/04 06:48:04;;;;;;;;;;;-1.80;1.00;;;;;;5137001;27;20365;-57
2022/03/04 06:50:31;;;;;;;;;;;-1.80;99.90;;;;;;5136943;27;19972;-60
2022/03/04 06:52:57;;;;;;;;;;;-1.70;1.00;;;;;;5136934;27;20380;-58
2022/03/04 06:55:25;;;;;;;;;;;-1.70;99.90;;;;;;5136431;27;19919;-57
2022/03/04 06:57:54;;;;;;;;;;;-1.60;99.90;;;;;;5136993;27;19919;-56
2022/03/04 07:00:21;;;;;;;;;;;-1.60;1.00;;;;;;5136658;27;19923;-55
2022/03/04 07:02:48;;;;;;;;;;;-1.50;99.90;;;;;;5136249;27;20305;-57
2022/03/04 07:05:14;;;;;;;;;;;-1.50;99.90;;;;;;5136409;27;19919;-57
2022/03/04 07:07:41;;;;;;;;;;;-1.40;1.00;;;;;;5136209;27;19919;-58
2022/03/04 07:10:08;;;;;;;;;;;-1.30;1.00;;;;;;5136602;27;19976;-56
2022/03/04 07:12:37;;;;;;;;;;;-1.20;1.00;;;;;;5136348;27;20270;-58
2022/03/04 07:15:03;;;;;;;;;;;-1.10;99.90;;;;;;5136304;27;19928;-55
2022/03/04 07:17:30;;;;;;;;;;;-1.10;99.90;;;;;;5136444;27;19919;-57
2022/03/04 07:19:56;;;;;;;;;;;-1.00;1.20;;;;;;5134798;27;19965;-57
2022/03/04 07:22:23;;;;;;;;;;;-1.00;99.90;;;;;;5115915;28;19924;-53
2022/03/04 07:24:49;;;;;;;;;;;-0.90;99.90;;;;;;5115460;28;19919;-57
2022/03/04 07:27:16;;;;;;;;;;;-0.90;99.90;;;;;;5115276;28;19920;-54
2022/03/04 07:29:44;;;;;;;;;;;-0.80;1.00;;;;;;5115940;28;19926;-54
2022/03/04 07:32:10;;;;;;;;;;;-0.70;99.90;;;;;;5115707;28;19972;-53
2022/03/04 07:34:37;;;;;;;;;;;-0.60;20.20;;;;;;5115734;28;19923;-56
2022/03/04 07:37:03;;;;;;;;;;;-0.60;99.90;;;;;;5115327;28;19973;-56
2022/03/04 07:39:30;;;;;;;;;;;-0.50;99.90;;;;;;5115789;28;20438;-57
2022/03/04 07:41:56;;;;;;;;;;;-0.40;1.00;;;;;;5115464;28;19919;-58
2022/03/04 07:44:23;;;;;;;;;;;-0.30;99.90;;;;;;5115396;28;20339;-57
2022/03/04 07:46:51;;;;;;;;;;;-0.10;1.00;;;;;;5114901;28;19920;-55
2022/03/04 07:49:18;;;;;;;;;;;0.00;99.90;;;;;;5132811;22;19923;-52
2022/03/04 07:51:45;;;;;;;;;;;0.10;85.70;;;;;;5094488;28;20378;-52
2022/03/04 07:54:11;;;;;;;;;;;0.20;1.00;;;;;;5094290;28;20404;-55
2022/03/04 07:56:38;;;;;;;;;;;0.40;99.90;;;;;;5114502;22;19904;-61
2022/03/04 07:59:04;;;;;;;;;;;0.50;99.90;;;;;;5106318;22;19969;-61
2022/03/04 08:04:11;;;;;;;;;;;0.70;1.00;;;;;;5071538;28;19920;-59
2022/03/04 08:06:38;;;;;;;;;;;0.90;1.00;;;;;;5073568;28;19920;-61
2022/03/04 08:09:05;;;;;;;;;;;1.00;1.00;;;;;;5093728;23;19924;-61
2022/03/04 08:11:31;;;;;;;;;;;1.10;1.00;;;;;;5074257;28;19990;-61
2022/03/04 08:13:58;;;;;;;;;;;1.30;99.90;;;;;;5074018;28;20340;-61
2022/03/04 08:16:25;;;;;;;;;;;1.40;99.90;;;;;;5097269;22;19924;-60
2022/03/04 08:18:52;;;;;;;;;;;1.50;99.90;;;;;;5054457;28;19966;-59
2022/03/04 08:21:20;;;;;;;;;;;1.70;99.90;;;;;;5054556;28;20452;-60
2022/03/04 08:23:46;;;;;;;;;;;1.80;99.90;;;;;;5053468;28;20408;-61
2022/03/04 08:26:13;;;;;;;;;;;2.00;99.90;;;;;;5053687;28;19920;-62
2022/03/04 08:28:39;;;;;;;;;;;2.20;99.90;;;;;;5094247;22;20053;-61
2022/03/04 08:31:10;;;;;;;;;;;2.30;33.10;;;;;;5073982;28;19967;-62
2022/03/04 08:36:10;;;;;;;;;;;2.40;1.00;;;;;;5085393;22;20006;-60
2022/03/04 08:41:13;;;;;;;;;;;2.50;1.00;;;;;;5070503;28;19931;-51
2022/03/04 08:43:40;;;;;;;;;;;2.60;1.00;;;;;;5065116;28;19967;-55
2022/03/04 08:46:07;;;;;;;;;;;2.70;1.00;;;;;;5073310;28;19920;-53
2022/03/04 08:48:34;;;;;;;;;;;2.90;1.00;;;;;;5072997;28;19920;-51
2022/03/04 08:51:01;;;;;;;;;;;3.00;1.00;;;;;;5073562;28;19924;-54
2022/03/04 08:53:27;;;;;;;;;;;3.20;1.00;;;;;;5073190;28;19920;-52
2022/03/04 08:55:55;;;;;;;;;;;3.30;99.90;;;;;;5073145;28;19924;-51
2022/03/04 08:58:23;;;;;;;;;;;3.40;99.90;;;;;;5073301;28;20373;-53
2022/03/04 09:00:49;;;;;;;;;;;3.40;99.90;;;;;;5073046;28;20336;-52
2022/03/04 09:03:16;;;;;;;;;;;3.50;99.90;;;;;;5093116;28;19923;-53
2022/03/04 09:05:42;;;;;;;;;;;3.70;99.90;;;;;;5094623;22;19921;-52
2022/03/04 09:08:09;;;;;;;;;;;3.80;99.90;;;;;;5033287;28;19925;-52
2022/03/04 09:10:36;;;;;;;;;;;3.90;99.90;;;;;;5090790;22;20444;-51
2022/03/04 09:13:04;;;;;;;;;;;4.00;99.90;;;;;;5073108;28;19924;-55
2022/03/04 09:18:00;;;;;;;;;;;4.00;99.90;;;;;;5131066;27;19923;-62
2022/03/04 09:20:27;;;;;;;;;;;4.20;99.90;;;;;;5134030;27;19919;-62
2022/03/04 09:22:55;;;;;;;;;;;4.30;99.90;;;;;;5133572;27;20403;-62
2022/03/04 09:25:22;;;;;;;;;;;4.40;99.90;;;;;;5133654;27;19919;-61
2022/03/04 09:27:50;;;;;;;;;;;4.60;99.90;;;;;;5133872;27;19925;-63
2022/03/04 09:30:16;;;;;;;;;;;4.70;99.90;;;;;;5133284;27;20467;-63
2022/03/04 09:32:43;;;;;;;;;;;4.70;99.90;;;;;;5134377;27;19923;-62
2022/03/04 09:35:11;;;;;;;;;;;4.80;99.90;;;;;;5133385;27;19926;-63
2022/03/04 09:37:38;;;;;;;;;;;5.00;99.90;;;;;;5133382;27;19967;-62
2022/03/04 09:40:06;;;;;;;;;;;5.00;99.90;;;;;;5133483;27;19919;-62
2022/03/04 09:42:32;;;;;;;;;;;5.20;99.90;;;;;;5132682;22;19920;-62
2022/03/04 09:44:59;;;;;;;;;;;5.40;99.90;;;;;;5092332;28;19927;-61
2022/03/04 09:47:25;;;;;;;;;;;5.60;99.90;;;;;;5092618;28;19920;-62
2022/03/04 09:49:53;;;;;;;;;;;5.70;99.90;;;;;;5117645;22;19920;-63
2022/03/04 09:52:22;;;;;;;;;;;5.70;99.90;;;;;;5072950;28;19920;-62
2022/03/04 09:54:49;;;;;;;;;;;5.80;99.90;;;;;;5096338;22;19928;-63
2022/03/04 09:57:15;;;;;;;;;;;6.00;99.90;;;;;;5052616;28;19921;-61
2022/03/04 09:59:44;;;;;;;;;;;6.10;99.90;;;;;;5095888;22;20033;-57
2022/03/04 10:02:11;;;;;;;;;;;6.10;99.90;;;;;;5092754;28;20076;-57
2022/03/04 10:04:38;;;;;;;;;;;6.00;99.90;;;;;;5106384;22;19927;-60
2022/03/04 10:07:11;;;;;;;;;;;6.10;99.90;;;;;;5092505;28;19973;-63
2022/03/04 10:09:42;;;;;;;;;;;6.30;99.90;;;;;;5092105;28;19927;-62
2022/03/04 10:12:09;;;;;;;;;;;6.50;99.90;;;;;;5082050;28;20461;-63
2022/03/04 10:14:55;;;;;;;;;;;6.60;99.90;;;;;;5071910;28;19970;-62
2022/03/04 10:17:22;;;;;;;;;;;6.80;99.90;;;;;;5107256;22;19921;-63
2022/03/04 10:19:51;;;;;;;;;;;6.90;99.90;;;;;;5051664;28;20432;-62
2022/03/04 10:22:18;;;;;;;;;;;7.00;99.90;;;;;;5103389;22;19920;-62
2022/03/04 10:24:45;;;;;;;;;;;7.00;99.90;;;;;;5092294;28;19924;-63
2022/03/04 10:27:13;;;;;;;;;;;7.10;99.90;;;;;;5091681;28;19920;-63
2022/03/04 10:29:40;;;;;;;;;;;7.30;99.90;;;;;;5092188;28;19920;-63
2022/03/04 10:32:11;;;;;;;;;;;7.30;99.90;;;;;;5086774;28;19974;-61
2022/03/04 10:34:45;;;;;;;;;;;7.30;99.90;;;;;;5114108;22;19920;-64
2022/03/04 10:37:11;;;;;;;;;;;7.30;99.90;;;;;;5092137;28;19927;-63
2022/03/04 10:39:56;;;;;;;;;;;7.40;99.90;;;;;;5091793;28;19924;-64
2022/03/04 10:42:37;;;;;;;;;;;7.40;99.90;;;;;;5106363;22;19920;-57
2022/03/04 10:45:08;;;;;;;;;;;7.50;99.90;;;;;;5091290;28;19974;-57
2022/03/04 10:50:32;;;;;;;;;;;7.50;99.90;;;;;;5089327;28;19920;-58
2022/03/04 10:52:59;;;;;;;;;;;7.70;99.90;;;;;;5111365;22;20010;-62
2022/03/04 10:55:34;;;;;;;;;;;7.80;99.90;;;;;;5092179;28;19920;-62
2022/03/04 10:58:03;;;;;;;;;;;7.90;99.90;;;;;;5091195;28;19924;-62
2022/03/04 11:00:31;;;;;;;;;;;8.10;99.90;;;;;;5115920;22;19924;-58
2022/03/04 11:02:57;;;;;;;;;;;8.20;99.90;;;;;;5071277;28;19924;-56
2022/03/04 11:05:24;;;;;;;;;;;8.50;99.90;;;;;;5116498;22;19981;-61
2022/03/04 11:07:51;;;;;;;;;;;8.50;99.90;;;;;;5091599;28;19920;-63
2022/03/04 11:10:19;;;;;;;;;;;8.40;99.90;;;;;;5091005;28;20349;-62
2022/03/04 11:12:49;;;;;;;;;;;8.50;99.90;;;;;;5106204;22;19920;-62
2022/03/04 11:17:55;;;;;;;;;;;8.20;99.90;;;;;;5089144;28;19923;-61
2022/03/04 11:20:21;;;;;;;;;;;8.30;99.90;;;;;;5091629;28;19924;-58
2022/03/04 11:25:25;;;;;;;;;;;8.30;99.90;;;;;;5096596;22;19920;-60
2022/03/04 11:30:30;;;;;;;;;;;8.40;99.90;;;;;;5074136;22;19927;-54
2022/03/04 11:33:01;;;;;;;;;;;8.40;99.90;;;;;;5071677;22;19971;-63
2022/03/04 11:35:46;;;;;;;;;;;8.40;99.90;;;;;;5129871;22;20269;-59
2022/03/04 11:38:13;;;;;;;;;;;8.40;99.90;;;;;;5094871;28;19927;-66
2022/03/04 11:40:49;;;;;;;;;;;8.60;99.90;;;;;;5092818;22;19924;-58
2022/03/04 11:43:16;;;;;;;;;;;8.70;99.90;;;;;;5054899;28;19974;-56
2022/03/04 11:45:43;;;;;;;;;;;8.70;99.90;;;;;;5110873;22;19946;-66
2022/03/04 11:48:12;;;;;;;;;;;8.70;99.90;;;;;;5094768;28;20393;-65
2022/03/04 11:50:48;;;;;;;;;;;8.90;99.90;;;;;;5147899;22;19924;-59
2022/03/04 11:53:16;;;;;;;;;;;8.80;99.90;;;;;;5084200;28;19921;-59
2022/03/04 11:58:29;;;;;;;;;;;8.80;99.90;;;;;;5133152;27;20022;-64
2022/03/04 12:01:15;;;;;;;;;;;8.80;99.90;;;;;;5135520;27;19971;-63
2022/03/04 12:04:04;;;;;;;;;;;8.60;99.90;;;;;;5126525;22;20340;-62
2022/03/04 12:06:31;;;;;;;;;;;8.70;99.90;;;;;;5094101;28;19923;-63
2022/03/04 12:09:00;;;;;;;;;;;8.80;99.90;;;;;;5123366;22;20349;-62
2022/03/04 12:11:27;;;;;;;;;;;8.90;99.90;;;;;;5095074;28;20019;-62
2022/03/04 12:16:46;;;;;;;;;;;9.00;99.90;;;;;;5107109;22;19927;-61
2022/03/04 12:19:27;;;;;;;;;;;9.00;99.90;;;;;;5094422;28;19924;-61
2022/03/04 12:21:56;;;;;;;;;;;9.10;99.90;;;;;;5095135;28;19927;-61
2022/03/04 12:24:28;;;;;;;;;;;9.10;99.90;;;;;;5095223;28;19920;-60
2022/03/04 12:26:55;;;;;;;;;;;9.20;99.90;;;;;;5108269;22;19920;-54
2022/03/04 12:29:24;;;;;;;;;;;9.30;99.90;;;;;;5093806;28;19920;-55
2022/03/04 12:31:52;;;;;;;;;;;9.30;99.90;;;;;;5114369;22;19924;-59
2022/03/04 12:34:20;;;;;;;;;;;9.40;99.90;;;;;;5091319;28;20340;-59
2022/03/04 12:36:46;;;;;;;;;;;9.40;99.90;;;;;;5087559;22;19912;-64
2022/03/04 12:39:17;;;;;;;;;;;9.60;99.90;;;;;;5088730;22;19920;-58
2022/03/04 12:41:43;;;;;;;;;;;9.70;99.90;;;;;;5073560;28;19924;-60
2022/03/04 12:44:10;;;;;;;;;;;9.70;99.90;;;;;;5115507;22;19981;-58
2022/03/04 12:46:37;;;;;;;;;;;9.60;99.90;;;;;;5089347;28;19920;-60
2022/03/04 12:51:41;;;;;;;;;;;9.40;99.90;;;;;;5071324;28;19928;-61
2022/03/04 12:54:09;;;;;;;;;;;9.30;99.90;;;;;;5073647;28;19924;-60
2022/03/04 12:56:36;;;;;;;;;;;9.20;99.90;;;;;;5117882;22;20401;-63
2022/03/04 13:01:31;;;;;;;;;;;9.30;99.90;;;;;;5072432;22;19921;-56
2022/03/04 13:03:59;;;;;;;;;;;9.30;99.90;;;;;;5053666;28;20345;-56
2022/03/04 13:06:26;;;;;;;;;;;9.30;99.90;;;;;;5103532;22;19924;-52
2022/03/04 13:08:56;;;;;;;;;;;9.40;99.90;;;;;;5093053;28;19919;-57
2022/03/04 13:16:40;;;;;;;;;;;9.50;99.90;;;;;;5051505;28;20004;-61
2022/03/04 13:19:09;;;;;;;;;;;9.40;99.90;;;;;;5052644;28;19986;-61
2022/03/04 13:21:46;;;;;;;;;;;9.10;99.90;;;;;;5052767;28;19924;-61
2022/03/04 13:24:15;;;;;;;;;;;9.30;99.90;;;;;;5084530;22;19920;-54
2022/03/04 13:26:46;;;;;;;;;;;9.50;99.90;;;;;;5092701;28;20269;-57
2022/03/04 13:29:13;;;;;;;;;;;9.50;99.90;;;;;;5118620;22;19926;-56
2022/03/04 13:31:50;;;;;;;;;;;9.50;99.90;;;;;;5107193;22;19923;-64
2022/03/04 13:34:17;;;;;;;;;;;9.50;99.90;;;;;;5116520;22;19963;-62
2022/03/04 13:36:47;;;;;;;;;;;9.50;99.90;;;;;;5093186;28;19920;-62
2022/03/04 13:39:19;;;;;;;;;;;9.50;99.90;;;;;;5106040;22;20373;-49
2022/03/04 13:41:46;;;;;;;;;;;9.60;99.90;;;;;;5105098;22;20592;-62
2022/03/04 13:44:13;;;;;;;;;;;9.50;99.90;;;;;;5118190;22;19924;-62
2022/03/04 13:46:54;;;;;;;;;;;9.50;99.90;;;;;;5092133;28;19974;-64
2022/03/04 13:49:21;;;;;;;;;;;9.50;99.90;;;;;;5116297;22;20439;-56
2022/03/04 13:51:59;;;;;;;;;;;9.40;99.90;;;;;;5092721;28;20336;-57
2022/03/04 13:57:06;;;;;;;;;;;9.10;99.90;;;;;;5069012;28;19959;-61
2022/03/04 13:59:47;;;;;;;;;;;9.30;99.90;;;;;;5072132;28;19947;-61
2022/03/04 14:02:14;;;;;;;;;;;9.10;99.90;;;;;;5061809;28;19924;-61
2022/03/04 14:04:51;;;;;;;;;;;8.90;99.90;;;;;;5052257;28;19974;-61
2022/03/04 14:07:18;;;;;;;;;;;9.00;99.90;;;;;;5051459;28;19921;-59
2022/03/04 14:09:48;;;;;;;;;;;9.00;99.90;;;;;;5051739;28;19943;-61
2022/03/04 14:12:15;;;;;;;;;;;9.00;99.90;;;;;;5067233;22;19928;-59
2022/03/04 14:14:41;;;;;;;;;;;9.00;99.90;;;;;;5103744;22;19973;-62
2022/03/04 14:17:08;;;;;;;;;;;9.00;99.90;;;;;;5091643;28;19920;-62
2022/03/04 14:19:35;;;;;;;;;;;9.00;99.90;;;;;;5091868;28;19920;-63
2022/03/04 14:24:37;;;;;;;;;;;8.90;99.90;;;;;;5088600;28;20015;-61
2022/03/04 14:27:05;;;;;;;;;;;8.90;99.90;;;;;;5194000;22;19904;-53
2022/03/04 14:29:32;;;;;;;;;;;8.90;99.90;;;;;;5092156;28;19927;-49
2022/03/04 14:31:58;;;;;;;;;;;8.90;99.90;;;;;;5091987;28;19969;-52
2022/03/04 14:34:25;;;;;;;;;;;8.90;99.90;;;;;;5187951;22;19920;-55
2022/03/04 14:36:51;;;;;;;;;;;8.80;99.90;;;;;;5091748;28;20266;-51
2022/03/04 14:39:18;;;;;;;;;;;8.80;99.90;;;;;;5092494;28;19924;-52
2022/03/04 14:41:44;;;;;;;;;;;8.60;99.90;;;;;;5209494;22;19923;-49
2022/03/04 14:44:12;;;;;;;;;;;8.60;99.90;;;;;;5092449;28;19920;-54
2022/03/04 14:49:18;;;;;;;;;;;8.50;99.90;;;;;;5069270;28;19920;-51
2022/03/04 14:51:45;;;;;;;;;;;8.40;99.90;;;;;;5072308;28;19927;-50
2022/03/04 14:54:12;;;;;;;;;;;8.30;99.90;;;;;;5289746;23;19991;-51
2022/03/04 14:56:38;;;;;;;;;;;8.30;99.90;;;;;;5071563;28;20298;-49
2022/03/04 14:59:05;;;;;;;;;;;8.30;99.90;;;;;;5140944;23;20339;-49
2022/03/04 15:01:33;;;;;;;;;;;8.30;99.90;;;;;;5071655;28;19924;-51
2022/03/04 15:06:30;;;;;;;;;;;8.20;99.90;;;;;;5084656;23;19920;-54
2022/03/04 15:08:57;;;;;;;;;;;8.10;99.90;;;;;;5075704;28;20335;-48
2022/03/04 15:11:24;;;;;;;;;;;8.10;99.90;;;;;;5184234;22;19924;-49
2022/03/04 15:13:50;;;;;;;;;;;8.10;99.90;;;;;;5055494;28;19921;-51
2022/03/04 15:16:17;;;;;;;;;;;7.90;99.90;;;;;;5104085;22;19904;-54
2022/03/04 15:18:45;;;;;;;;;;;7.80;99.90;;;;;;5110116;22;19920;-53
2022/03/04 15:21:12;;;;;;;;;;;7.80;99.90;;;;;;5095448;28;20367;-50